createdAt,value
2022-07-30T00:00:58.711Z,88.15
2022-07-30T00:01:58.666Z,87.88
2022-07-30T00:02:58.678Z,87.88
2022-07-30T00:03:58.745Z,87.48
2022-07-30T00:04:58.662Z,87.48
2022-07-30T00:06:58.961Z,87.38
2022-07-30T00:07:58.666Z,88.19
2022-07-30T00:08:58.661Z,87.73
2022-07-30T00:09:58.656Z,88.53
2022-07-30T00:10:58.657Z,88.29
2022-07-30T00:11:58.654Z,87.82
2022-07-30T00:12:58.655Z,87.62
2022-07-30T00:13:58.650Z,88.33
2022-07-30T00:14:58.654Z,88.64
2022-07-30T00:15:58.648Z,88.94
2022-07-30T00:16:59.049Z,88.43
2022-07-30T00:17:58.648Z,88.53
2022-07-30T00:18:58.646Z,88.57
2022-07-30T00:19:58.642Z,88.98
2022-07-30T00:20:58.645Z,88.94
2022-07-30T00:21:58.641Z,88.84
2022-07-30T00:22:58.638Z,89.34
2022-07-30T00:24:01.898Z,88.68
2022-07-30T00:24:58.640Z,88.68
2022-07-30T00:25:58.636Z,87.97
2022-07-30T00:26:58.954Z,88.88
2022-07-30T00:27:58.634Z,89.34
2022-07-30T00:28:58.644Z,89.85
2022-07-30T00:29:58.637Z,89.95
2022-07-30T00:31:58.634Z,88.43
2022-07-30T00:32:58.627Z,88.43
2022-07-30T00:33:59.074Z,88.23
2022-07-30T00:34:58.623Z,87.32
2022-07-30T00:35:58.620Z,86.65
2022-07-30T00:36:58.843Z,86.55
2022-07-30T00:37:58.620Z,86.96
2022-07-30T00:38:58.655Z,87.56
2022-07-30T00:39:58.616Z,87.30
2022-07-30T00:40:58.616Z,87.71
2022-07-30T00:41:58.613Z,87.91
2022-07-30T00:42:58.611Z,88.72
2022-07-30T00:43:58.608Z,88.92
2022-07-30T00:44:58.607Z,89.67
2022-07-30T00:45:58.619Z,89.47
2022-07-30T00:46:59.162Z,89.67
2022-07-30T00:47:58.604Z,89.87
2022-07-30T00:48:58.675Z,89.98
2022-07-30T00:49:58.601Z,90.58
2022-07-30T00:50:58.598Z,90.58
2022-07-30T00:51:58.597Z,90.48
2022-07-30T00:52:58.600Z,91.30
2022-07-30T00:53:58.595Z,91.13
2022-07-30T00:54:58.671Z,91.03
2022-07-30T00:55:58.592Z,90.48
2022-07-30T00:56:58.874Z,90.48
2022-07-30T00:57:58.586Z,90.69
2022-07-30T00:58:58.585Z,89.92
2022-07-30T00:59:58.584Z,89.81
2022-07-30T01:00:58.629Z,89.92
2022-07-30T01:01:58.636Z,89.57
2022-07-30T01:02:58.582Z,89.92
2022-07-30T01:03:58.578Z,89.37
2022-07-30T01:04:58.579Z,89.37
2022-07-30T01:05:58.578Z,89.81
2022-07-30T01:06:58.864Z,89.61
2022-07-30T01:07:58.574Z,90.53
2022-07-30T01:08:58.570Z,90.63
2022-07-30T01:09:58.601Z,91.13
2022-07-30T01:10:58.568Z,91.03
2022-07-30T01:11:58.564Z,91.34
2022-07-30T01:14:58.561Z,92.45
2022-07-30T01:15:58.557Z,92.55
2022-07-30T01:16:58.830Z,92.70
2022-07-30T01:17:58.555Z,91.54
2022-07-30T01:18:58.553Z,91.08
2022-07-30T01:19:58.551Z,89.86
2022-07-30T01:20:58.552Z,90.06
2022-07-30T01:21:58.548Z,89.96
2022-07-30T01:22:58.549Z,89.76
2022-07-30T01:23:58.547Z,89.65
2022-07-30T01:24:58.543Z,89.15
2022-07-30T01:25:58.541Z,89.04
2022-07-30T01:26:58.969Z,89.45
2022-07-30T01:27:58.537Z,90.16
2022-07-30T01:28:58.535Z,91.08
2022-07-30T01:29:58.532Z,90.77
2022-07-30T01:32:02.441Z,90.77
2022-07-30T01:32:58.528Z,91.17
2022-07-30T01:33:58.525Z,91.28
2022-07-30T01:34:58.522Z,91.17
2022-07-30T01:35:58.520Z,91.02
2022-07-30T01:36:58.920Z,91.63
2022-07-30T01:37:58.517Z,91.17
2022-07-30T01:38:58.517Z,90.88
2022-07-30T01:39:58.515Z,91.17
2022-07-30T01:40:58.514Z,89.86
2022-07-30T01:41:58.509Z,89.29
2022-07-30T01:42:58.532Z,89.50
2022-07-30T01:43:58.507Z,88.99
2022-07-30T01:44:58.505Z,89.80
2022-07-30T01:45:58.600Z,90.00
2022-07-30T01:46:58.658Z,91.32
2022-07-30T01:47:58.512Z,90.71
2022-07-30T01:48:58.525Z,90.61
2022-07-30T01:49:58.498Z,91.52
2022-07-30T01:50:58.499Z,91.63
2022-07-30T01:51:58.491Z,90.61
2022-07-30T01:52:58.493Z,91.02
2022-07-30T01:53:58.489Z,90.92
2022-07-30T01:54:58.487Z,91.52
2022-07-30T01:55:58.484Z,90.75
2022-07-30T01:56:58.788Z,90.66
2022-07-30T01:57:58.478Z,90.86
2022-07-30T01:58:58.478Z,91.16
2022-07-30T01:59:58.477Z,90.55
2022-07-30T02:00:58.563Z,90.55
2022-07-30T02:01:58.471Z,91.36
2022-07-30T02:02:58.470Z,91.16
2022-07-30T02:03:58.514Z,91.16
2022-07-30T02:04:58.469Z,91.16
2022-07-30T02:05:58.466Z,91.56
2022-07-30T02:06:58.669Z,91.47
2022-07-30T02:07:58.461Z,91.36
2022-07-30T02:08:58.461Z,91.06
2022-07-30T02:09:58.457Z,91.51
2022-07-30T02:10:58.457Z,90.75
2022-07-30T02:11:58.455Z,91.56
2022-07-30T02:12:58.451Z,92.58
2022-07-30T02:13:58.450Z,92.89
2022-07-30T02:14:58.446Z,93.19
2022-07-30T02:15:58.542Z,92.68
2022-07-30T02:16:58.815Z,92.79
2022-07-30T02:17:58.442Z,93.29
2022-07-30T02:18:58.764Z,93.09
2022-07-30T02:19:58.437Z,92.79
2022-07-30T02:20:58.447Z,93.09
2022-07-30T02:21:58.434Z,92.74
2022-07-30T02:22:58.431Z,92.89
2022-07-30T02:23:58.427Z,92.54
2022-07-30T02:24:58.426Z,91.26
2022-07-30T02:25:58.424Z,91.47
2022-07-30T02:26:58.723Z,91.26
2022-07-30T02:27:58.418Z,91.22
2022-07-30T02:28:58.419Z,90.05
2022-07-30T02:29:58.418Z,90.35
2022-07-30T02:30:58.414Z,90.25
2022-07-30T02:31:58.410Z,89.74
2022-07-30T02:32:58.413Z,90.66
2022-07-30T02:33:58.758Z,91.20
2022-07-30T02:34:58.405Z,91.26
2022-07-30T02:35:58.405Z,91.16
2022-07-30T02:36:58.610Z,91.16
2022-07-30T02:37:58.402Z,91.36
2022-07-30T02:38:58.396Z,90.70
2022-07-30T02:39:58.397Z,91.20
2022-07-30T02:40:58.392Z,91.10
2022-07-30T02:41:58.392Z,90.70
2022-07-30T02:42:58.390Z,91.41
2022-07-30T02:43:58.388Z,91.30
2022-07-30T02:44:58.386Z,90.64
2022-07-30T02:45:58.392Z,90.90
2022-07-30T02:46:58.761Z,90.74
2022-07-30T02:47:58.376Z,91.55
2022-07-30T02:48:58.427Z,91.65
2022-07-30T02:49:58.374Z,91.75
2022-07-30T02:50:58.376Z,92.47
2022-07-30T02:51:58.372Z,92.67
2022-07-30T02:52:58.368Z,93.18
2022-07-30T02:53:58.365Z,92.67
2022-07-30T02:54:58.361Z,93.13
2022-07-30T02:55:58.360Z,93.07
2022-07-30T02:56:58.739Z,92.97
2022-07-30T02:57:58.357Z,92.87
2022-07-30T02:58:58.356Z,93.03
2022-07-30T02:59:58.354Z,93.33
2022-07-30T03:00:58.396Z,92.83
2022-07-30T03:01:58.377Z,91.61
2022-07-30T03:02:58.347Z,91.00
2022-07-30T03:03:58.343Z,90.80
2022-07-30T03:04:58.342Z,90.29
2022-07-30T03:05:58.338Z,90.19
2022-07-30T03:06:58.641Z,89.68
2022-07-30T03:07:58.333Z,90.03
2022-07-30T03:08:58.333Z,89.83
2022-07-30T03:09:58.330Z,90.74
2022-07-30T03:10:58.327Z,90.74
2022-07-30T03:11:58.330Z,91.55
2022-07-30T03:12:58.329Z,92.77
2022-07-30T03:13:58.323Z,92.36
2022-07-30T03:14:58.321Z,92.57
2022-07-30T03:15:58.362Z,92.97
2022-07-30T03:16:58.711Z,93.18
2022-07-30T03:17:58.319Z,93.07
2022-07-30T03:18:58.309Z,92.97
2022-07-30T03:19:58.310Z,92.87
2022-07-30T03:20:58.310Z,93.18
2022-07-30T03:21:58.308Z,92.87
2022-07-30T03:22:58.309Z,93.18
2022-07-30T03:23:58.298Z,92.57
2022-07-30T03:24:58.294Z,93.07
2022-07-30T03:25:58.293Z,92.57
2022-07-30T03:26:58.787Z,92.77
2022-07-30T03:27:58.289Z,92.77
2022-07-30T03:28:58.289Z,91.14
2022-07-30T03:29:58.296Z,91.25
2022-07-30T03:30:58.780Z,91.65
2022-07-30T03:31:58.341Z,91.51
2022-07-30T03:32:58.277Z,91.61
2022-07-30T03:33:58.732Z,91.51
2022-07-30T03:35:00.974Z,91.20
2022-07-30T03:35:58.271Z,91.65
2022-07-30T03:36:58.654Z,90.94
2022-07-30T03:37:58.271Z,91.14
2022-07-30T03:38:58.266Z,90.84
2022-07-30T03:39:58.267Z,91.49
2022-07-30T03:40:58.258Z,91.19
2022-07-30T03:41:58.257Z,91.69
2022-07-30T03:42:58.255Z,92.00
2022-07-30T03:43:58.255Z,93.22
2022-07-30T03:44:58.250Z,92.91
2022-07-30T03:45:58.251Z,93.22
2022-07-30T03:46:58.659Z,93.43
2022-07-30T03:47:58.257Z,93.22
2022-07-30T03:48:58.286Z,93.63
2022-07-30T03:49:58.241Z,93.93
2022-07-30T03:50:58.234Z,93.48
2022-07-30T03:51:58.238Z,93.12
2022-07-30T03:52:58.241Z,92.91
2022-07-30T03:53:58.231Z,92.77
2022-07-30T03:54:58.225Z,92.61
2022-07-30T03:55:58.224Z,92.51
2022-07-30T03:56:58.647Z,93.12
2022-07-30T03:57:58.226Z,93.22
2022-07-30T03:58:58.217Z,93.22
2022-07-30T03:59:58.432Z,93.02
2022-07-30T04:00:58.250Z,92.82
2022-07-30T04:01:58.236Z,92.77
2022-07-30T04:02:58.208Z,93.12
2022-07-30T04:03:58.242Z,93.07
2022-07-30T04:04:58.206Z,92.87
2022-07-30T04:05:58.207Z,93.07
2022-07-30T04:06:58.435Z,92.87
2022-07-30T04:07:58.196Z,91.75
2022-07-30T04:08:58.195Z,91.45
2022-07-30T04:09:58.195Z,90.64
2022-07-30T04:10:58.192Z,90.84
2022-07-30T04:11:58.190Z,91.14
2022-07-30T04:12:58.187Z,90.84
2022-07-30T04:13:58.181Z,91.69
2022-07-30T04:14:58.177Z,91.60
2022-07-30T04:16:38.391Z,92.00
2022-07-30T04:16:58.666Z,93.02
2022-07-30T04:17:58.178Z,93.02
2022-07-30T04:18:58.169Z,93.02
2022-07-30T04:19:58.166Z,93.32
2022-07-30T04:20:58.166Z,94.04
2022-07-30T04:21:58.164Z,93.73
2022-07-30T04:22:58.162Z,94.04
2022-07-30T04:24:03.925Z,94.54
2022-07-30T04:24:58.156Z,94.34
2022-07-30T04:25:58.154Z,93.99
2022-07-30T04:26:58.493Z,94.04
2022-07-30T04:28:03.340Z,93.59
2022-07-30T04:28:58.144Z,93.93
2022-07-30T04:29:58.143Z,93.79
2022-07-30T04:30:58.200Z,93.68
2022-07-30T04:31:58.141Z,94.09
2022-07-30T04:32:58.134Z,93.89
2022-07-30T04:34:01.093Z,94.29
2022-07-30T04:34:58.129Z,94.40
2022-07-30T04:35:58.134Z,94.60
2022-07-30T04:36:58.410Z,94.66
2022-07-30T04:37:58.133Z,94.66
2022-07-30T04:38:58.134Z,93.95
2022-07-30T04:39:58.117Z,94.05
2022-07-30T04:40:58.132Z,93.84
2022-07-30T04:41:58.121Z,93.95
2022-07-30T04:42:58.111Z,93.95
2022-07-30T04:43:58.113Z,93.84
2022-07-30T04:44:58.109Z,94.66
2022-07-30T04:45:58.107Z,95.06
2022-07-30T04:46:58.415Z,95.22
2022-07-30T04:47:58.131Z,94.82
2022-07-30T04:48:58.176Z,95.12
2022-07-30T04:49:58.095Z,95.22
2022-07-30T04:50:58.092Z,95.73
2022-07-30T04:51:58.088Z,95.63
2022-07-30T04:52:58.100Z,95.99
2022-07-30T04:53:58.086Z,95.89
2022-07-30T04:54:58.082Z,96.30
2022-07-30T04:55:58.081Z,96.39
2022-07-30T04:56:58.079Z,96.30
2022-07-30T04:57:58.077Z,96.09
2022-07-30T04:58:58.078Z,95.99
2022-07-30T04:59:58.072Z,95.58
2022-07-30T05:00:58.071Z,95.84
2022-07-30T05:01:58.113Z,95.58
2022-07-30T05:02:58.068Z,95.43
2022-07-30T05:03:58.062Z,95.64
2022-07-30T05:04:58.100Z,95.03
2022-07-30T05:05:58.058Z,95.54
2022-07-30T05:06:58.765Z,95.54
2022-07-30T05:07:58.130Z,95.54
2022-07-30T05:08:58.052Z,95.34
2022-07-30T05:09:58.048Z,95.43
2022-07-30T05:10:58.052Z,95.29
2022-07-30T05:11:58.042Z,95.09
2022-07-30T05:12:58.062Z,95.34
2022-07-30T05:13:58.039Z,95.29
2022-07-30T05:14:58.036Z,95.39
2022-07-30T05:15:58.088Z,95.70
2022-07-30T05:16:58.352Z,95.59
2022-07-30T05:17:58.029Z,94.89
2022-07-30T05:18:58.024Z,95.29
2022-07-30T05:19:58.025Z,95.70
2022-07-30T05:20:58.022Z,95.35
2022-07-30T05:21:58.024Z,95.04
2022-07-30T05:22:58.023Z,95.45
2022-07-30T05:23:58.018Z,95.04
2022-07-30T05:24:58.021Z,95.20
2022-07-30T05:25:58.010Z,95.10
2022-07-30T05:26:58.290Z,94.70
2022-07-30T05:27:58.009Z,94.79
2022-07-30T05:28:58.012Z,94.79
2022-07-30T05:29:58.004Z,94.95
2022-07-30T05:30:58.033Z,95.06
2022-07-30T05:32:00.829Z,95.15
2022-07-30T05:32:58.023Z,94.95
2022-07-30T05:34:02.545Z,94.95
2022-07-30T05:34:58.007Z,95.15
2022-07-30T05:35:57.991Z,95.06
2022-07-30T05:36:58.583Z,94.65
2022-07-30T05:37:57.987Z,95.06
2022-07-30T05:38:57.984Z,94.95
2022-07-30T05:40:02.670Z,94.65
2022-07-30T05:40:57.983Z,94.75
2022-07-30T05:41:57.976Z,94.40
2022-07-30T05:42:57.978Z,94.40
2022-07-30T05:43:57.975Z,94.60
2022-07-30T05:44:57.973Z,94.71
2022-07-30T05:45:58.027Z,94.81
2022-07-30T05:46:58.261Z,94.40
2022-07-30T05:47:57.966Z,95.21
2022-07-30T05:48:58.013Z,95.11
2022-07-30T05:50:01.600Z,95.11
2022-07-30T05:50:57.956Z,95.21
2022-07-30T05:51:57.962Z,94.86
2022-07-30T05:52:57.955Z,94.76
2022-07-30T05:53:57.956Z,94.66
2022-07-30T05:54:57.950Z,94.96
2022-07-30T05:55:57.951Z,95.07
2022-07-30T05:56:58.277Z,94.96
2022-07-30T05:57:57.942Z,95.17
2022-07-30T05:58:57.940Z,95.22
2022-07-30T05:59:57.939Z,95.43
2022-07-30T06:00:57.935Z,95.63
2022-07-30T06:01:58.048Z,95.43
2022-07-30T06:02:57.931Z,95.93
2022-07-30T06:03:57.931Z,95.93
2022-07-30T06:04:58.062Z,96.54
2022-07-30T06:05:57.928Z,96.19
2022-07-30T06:06:58.281Z,96.29
2022-07-30T06:07:57.924Z,97.00
2022-07-30T06:08:57.920Z,96.69
2022-07-30T06:09:57.917Z,96.80
2022-07-30T06:10:57.917Z,96.49
2022-07-30T06:11:57.915Z,96.49
2022-07-30T06:12:57.916Z,96.39
2022-07-30T06:13:57.915Z,96.49
2022-07-30T06:14:57.910Z,96.49
2022-07-30T06:15:57.949Z,96.89
2022-07-30T06:16:58.163Z,97.30
2022-07-30T06:18:01.905Z,97.60
2022-07-30T06:18:57.916Z,96.59
2022-07-30T06:19:57.906Z,96.29
2022-07-30T06:20:57.908Z,96.95
2022-07-30T06:22:05.992Z,96.49
2022-07-30T06:22:57.893Z,97.05
2022-07-30T06:23:57.904Z,96.89
2022-07-30T06:24:57.897Z,96.75
2022-07-30T06:25:57.889Z,96.34
2022-07-30T06:26:58.091Z,97.10
2022-07-30T06:27:57.895Z,96.95
2022-07-30T06:28:57.895Z,96.85
2022-07-30T06:29:57.898Z,97.05
2022-07-30T06:30:57.955Z,97.56
2022-07-30T06:31:57.879Z,96.45
2022-07-30T06:32:57.874Z,96.85
2022-07-30T06:33:57.871Z,97.80
2022-07-30T06:35:04.145Z,97.30
2022-07-30T06:35:57.871Z,97.40
2022-07-30T06:36:58.124Z,97.20
2022-07-30T06:38:05.828Z,97.80
2022-07-30T06:38:57.866Z,97.60
2022-07-30T06:39:58.734Z,97.50
2022-07-30T06:41:02.142Z,97.36
2022-07-30T06:41:57.857Z,97.45
2022-07-30T06:42:57.853Z,97.71
2022-07-30T06:43:57.859Z,97.36
2022-07-30T06:44:57.850Z,97.80
2022-07-30T06:45:57.892Z,97.71
2022-07-30T06:46:58.052Z,97.50
2022-07-30T06:47:57.845Z,97.30
2022-07-30T06:48:57.914Z,97.50
2022-07-30T06:49:57.839Z,97.80
2022-07-30T06:50:57.836Z,97.91
2022-07-30T06:51:57.836Z,97.50
2022-07-30T06:52:57.836Z,97.60
2022-07-30T06:53:57.835Z,98.11
2022-07-30T06:54:57.833Z,97.91
2022-07-30T06:55:58.385Z,97.91
2022-07-30T06:56:57.947Z,97.80
2022-07-30T06:57:57.828Z,98.21
2022-07-30T06:58:57.824Z,97.71
2022-07-30T06:59:57.836Z,98.31
2022-07-30T07:00:57.874Z,98.82
2022-07-30T07:01:57.833Z,98.82
2022-07-30T07:02:57.815Z,98.61
2022-07-30T07:03:57.874Z,98.01
2022-07-30T07:04:57.809Z,98.11
2022-07-30T07:05:57.809Z,98.01
2022-07-30T07:06:58.399Z,98.21
2022-07-30T07:07:59.501Z,97.71
2022-07-30T07:08:57.801Z,98.01
2022-07-30T07:09:57.802Z,97.71
2022-07-30T07:10:57.798Z,98.01
2022-07-30T07:11:57.800Z,97.91
2022-07-30T07:12:57.795Z,98.01
2022-07-30T07:14:01.392Z,97.80
2022-07-30T07:14:57.790Z,98.11
2022-07-30T07:15:57.790Z,97.91
2022-07-30T07:16:57.817Z,98.27
2022-07-30T07:17:57.795Z,98.41
2022-07-30T07:18:57.789Z,98.36
2022-07-30T07:19:59.793Z,98.16
2022-07-30T07:20:57.780Z,98.97
2022-07-30T07:21:57.780Z,97.96
2022-07-30T07:22:57.774Z,98.87
2022-07-30T07:23:57.774Z,98.16
2022-07-30T07:24:57.774Z,97.86
2022-07-30T07:25:57.776Z,97.25
2022-07-30T07:26:58.084Z,97.05
2022-07-30T07:28:12.505Z,96.34
2022-07-30T07:29:00.213Z,96.45
2022-07-30T07:30:01.827Z,96.65
2022-07-30T07:30:57.784Z,96.34
2022-07-30T07:32:06.033Z,96.95
2022-07-30T07:32:57.757Z,96.55
2022-07-30T07:33:57.757Z,96.85
2022-07-30T07:34:58.008Z,96.04
2022-07-30T07:35:57.752Z,95.94
2022-07-30T07:36:58.068Z,95.34
2022-07-30T07:37:57.747Z,94.87
2022-07-30T07:38:57.747Z,94.63
2022-07-30T07:39:57.745Z,94.47
2022-07-30T07:40:57.744Z,94.53
2022-07-30T07:41:57.740Z,94.37
2022-07-30T07:42:57.740Z,94.73
2022-07-30T07:43:57.742Z,94.73
2022-07-30T07:44:57.738Z,94.38
2022-07-30T07:45:57.801Z,94.59
2022-07-30T07:46:57.941Z,94.28
2022-07-30T07:47:57.733Z,94.18
2022-07-30T07:48:57.776Z,93.88
2022-07-30T07:49:57.730Z,94.28
2022-07-30T07:51:00.285Z,94.38
2022-07-30T07:51:57.723Z,94.08
2022-07-30T07:52:57.735Z,94.04
2022-07-30T07:54:19.884Z,94.13
2022-07-30T07:54:57.717Z,94.54
2022-07-30T07:55:57.714Z,94.34
2022-07-30T07:56:57.800Z,94.24
2022-07-30T07:57:57.711Z,93.79
2022-07-30T07:58:57.714Z,93.38
2022-07-30T07:59:57.709Z,92.38
2022-07-30T08:00:57.782Z,92.18
2022-07-30T08:01:57.740Z,90.77
2022-07-30T08:02:57.712Z,90.56
2022-07-30T08:03:57.707Z,90.06
2022-07-30T08:04:57.703Z,90.56
2022-07-30T08:06:05.844Z,89.51
2022-07-30T08:06:57.728Z,90.92
2022-07-30T08:07:57.696Z,91.02
2022-07-30T08:08:57.696Z,90.78
2022-07-30T08:09:57.695Z,89.47
2022-07-30T08:10:57.692Z,89.06
2022-07-30T08:11:57.690Z,89.17
2022-07-30T08:12:57.694Z,88.86
2022-07-30T08:13:57.691Z,88.56
2022-07-30T08:14:57.690Z,88.76
2022-07-30T08:15:57.686Z,88.92
2022-07-30T08:16:57.731Z,89.23
2022-07-30T08:17:57.684Z,89.03
2022-07-30T08:18:57.683Z,87.92
2022-07-30T08:19:57.681Z,88.78
2022-07-30T08:20:57.683Z,87.47
2022-07-30T08:21:57.680Z,87.57
2022-07-30T08:22:57.681Z,88.07
2022-07-30T08:23:57.680Z,88.64
2022-07-30T08:24:57.685Z,88.23
2022-07-30T08:25:57.696Z,87.93
2022-07-30T08:26:57.689Z,87.13
2022-07-30T08:27:57.686Z,87.29
2022-07-30T08:28:57.683Z,87.79
2022-07-30T08:29:57.675Z,87.59
2022-07-30T08:31:00.537Z,89.00
2022-07-30T08:31:57.684Z,88.55
2022-07-30T08:32:57.678Z,88.25
2022-07-30T08:33:57.678Z,88.55
2022-07-30T08:34:57.932Z,88.01
2022-07-30T08:35:59.263Z,86.30
2022-07-30T08:36:57.677Z,85.70
2022-07-30T08:37:57.684Z,84.39
2022-07-30T08:38:57.682Z,83.18
2022-07-30T08:39:57.684Z,82.64
2022-07-30T08:40:57.687Z,83.35
2022-07-30T08:41:57.683Z,83.95
2022-07-30T08:42:57.690Z,84.21
2022-07-30T08:43:57.686Z,83.21
2022-07-30T08:44:57.691Z,83.17
2022-07-30T08:45:57.689Z,83.27
2022-07-30T08:46:57.693Z,83.77
2022-07-30T08:47:57.693Z,82.23
2022-07-30T08:48:57.696Z,80.62
2022-07-30T08:49:57.697Z,81.99
2022-07-30T08:50:57.702Z,81.68
2022-07-30T08:51:57.701Z,79.78
2022-07-30T08:52:57.712Z,79.22
2022-07-30T08:53:57.715Z,80.02
2022-07-30T08:54:57.709Z,81.96
2022-07-30T08:55:58.788Z,82.73
2022-07-30T08:56:57.713Z,81.73
2022-07-30T08:57:57.714Z,80.22
2022-07-30T08:58:57.726Z,80.79
2022-07-30T09:00:00.572Z,80.98
2022-07-30T09:00:57.783Z,79.08
2022-07-30T09:01:57.722Z,79.08
2022-07-30T09:02:57.720Z,79.48
2022-07-30T09:03:57.827Z,78.78
2022-07-30T09:04:57.728Z,79.38
2022-07-30T09:05:57.735Z,78.58
2022-07-30T09:06:57.728Z,78.78
2022-07-30T09:07:57.726Z,79.34
2022-07-30T09:08:57.729Z,78.54
2022-07-30T09:09:57.783Z,78.58
2022-07-30T09:10:57.729Z,80.38
2022-07-30T09:11:57.727Z,78.92
2022-07-30T09:12:57.730Z,78.92
2022-07-30T09:13:57.733Z,79.02
2022-07-30T09:14:57.732Z,79.22
2022-07-30T09:15:57.729Z,80.62
2022-07-30T09:16:57.730Z,80.72
2022-07-30T09:17:57.734Z,80.08
2022-07-30T09:18:57.733Z,80.68
2022-07-30T09:19:57.727Z,79.18
2022-07-30T09:20:57.731Z,80.32
2022-07-30T09:21:57.727Z,80.52
2022-07-30T09:22:57.735Z,80.62
2022-07-30T09:23:57.732Z,80.22
2022-07-30T09:24:57.734Z,81.06
2022-07-30T09:25:57.730Z,80.76
2022-07-30T09:26:57.728Z,80.76
2022-07-30T09:27:57.732Z,82.06
2022-07-30T09:28:57.729Z,82.57
2022-07-30T09:29:57.729Z,82.57
2022-07-30T09:30:57.736Z,82.17
2022-07-30T09:31:57.730Z,82.20
2022-07-30T09:32:57.734Z,81.87
2022-07-30T09:33:57.729Z,80.10
2022-07-30T09:34:57.929Z,78.89
2022-07-30T09:35:57.742Z,81.10
2022-07-30T09:36:57.730Z,80.46
2022-07-30T09:37:57.728Z,80.66
2022-07-30T09:38:57.729Z,80.36
2022-07-30T09:39:59.265Z,79.96
2022-07-30T09:40:58.190Z,81.06
2022-07-30T09:41:57.745Z,80.76
2022-07-30T09:42:57.735Z,80.86
2022-07-30T09:43:57.725Z,81.87
2022-07-30T09:44:57.730Z,79.46
2022-07-30T09:45:57.986Z,79.46
2022-07-30T09:46:57.792Z,77.89
2022-07-30T09:47:57.736Z,78.99
2022-07-30T09:48:57.781Z,78.29
2022-07-30T09:49:57.730Z,78.59
2022-07-30T09:50:57.871Z,80.80
2022-07-30T09:51:57.943Z,79.83
2022-07-30T09:52:57.729Z,79.03
2022-07-30T09:53:57.805Z,79.73
2022-07-30T09:54:57.785Z,79.43
2022-07-30T09:55:57.724Z,80.54
2022-07-30T09:56:57.724Z,81.04
2022-07-30T09:57:58.856Z,79.33
2022-07-30T09:58:57.756Z,75.98
2022-07-30T09:59:57.726Z,77.48
2022-07-30T10:00:57.733Z,76.89
2022-07-30T10:02:01.125Z,76.98
2022-07-30T10:02:57.722Z,76.89
2022-07-30T10:03:57.719Z,77.48
2022-07-30T10:04:57.824Z,77.39
2022-07-30T10:05:57.719Z,78.19
2022-07-30T10:06:57.734Z,79.39
2022-07-30T10:07:57.716Z,77.45
2022-07-30T10:08:57.719Z,77.85
2022-07-30T10:09:57.717Z,79.19
2022-07-30T10:10:57.717Z,81.06
2022-07-30T10:11:57.728Z,78.96
2022-07-30T10:12:57.715Z,76.75
2022-07-30T10:13:57.814Z,77.35
2022-07-30T10:14:57.715Z,77.35
2022-07-30T10:15:57.719Z,75.84
2022-07-30T10:16:57.717Z,75.95
2022-07-30T10:17:57.715Z,74.40
2022-07-30T10:18:57.744Z,74.44
2022-07-30T10:19:57.710Z,74.04
2022-07-30T10:20:57.711Z,73.64
2022-07-30T10:21:57.710Z,74.04
2022-07-30T10:22:57.709Z,73.94
2022-07-30T10:23:57.770Z,74.54
2022-07-30T10:24:57.717Z,74.14
2022-07-30T10:25:57.735Z,74.14
2022-07-30T10:26:57.708Z,74.64
2022-07-30T10:27:58.314Z,73.87
2022-07-30T10:28:57.707Z,74.84
2022-07-30T10:29:57.707Z,75.58
2022-07-30T10:30:57.732Z,75.24
2022-07-30T10:31:57.750Z,76.85
2022-07-30T10:32:57.740Z,74.98
2022-07-30T10:33:57.706Z,76.08
2022-07-30T10:34:58.091Z,76.85
2022-07-30T10:35:57.705Z,76.95
2022-07-30T10:36:57.716Z,75.54
2022-07-30T10:37:57.701Z,76.25
2022-07-30T10:38:57.704Z,75.24
2022-07-30T10:39:57.700Z,76.34
2022-07-30T10:40:57.712Z,75.31
2022-07-30T10:41:57.705Z,74.80
2022-07-30T10:42:57.699Z,74.01
2022-07-30T10:43:57.698Z,75.71
2022-07-30T10:44:57.704Z,74.90
2022-07-30T10:45:57.701Z,74.20
2022-07-30T10:46:57.697Z,74.60
2022-07-30T10:47:57.697Z,74.30
2022-07-30T10:48:57.741Z,71.70
2022-07-30T10:49:57.697Z,73.30
2022-07-30T10:50:57.702Z,73.90
2022-07-30T10:51:57.745Z,73.50
2022-07-30T10:52:57.694Z,74.60
2022-07-30T10:53:57.692Z,74.10
2022-07-30T10:54:57.693Z,73.50
2022-07-30T10:55:57.690Z,74.90
2022-07-30T10:56:57.693Z,73.20
2022-07-30T10:57:57.690Z,73.20
2022-07-30T10:58:57.691Z,74.07
2022-07-30T10:59:57.690Z,71.77
2022-07-30T11:00:57.689Z,70.96
2022-07-30T11:01:57.690Z,72.27
2022-07-30T11:02:57.691Z,71.06
2022-07-30T11:03:57.686Z,71.46
2022-07-30T11:04:57.688Z,69.35
2022-07-30T11:05:57.689Z,70.26
2022-07-30T11:06:57.690Z,68.55
2022-07-30T11:07:57.683Z,67.96
2022-07-30T11:08:58.333Z,69.42
2022-07-30T11:10:05.959Z,68.12
2022-07-30T11:10:57.687Z,69.53
2022-07-30T11:12:01.920Z,70.12
2022-07-30T11:12:57.682Z,69.93
2022-07-30T11:13:57.685Z,70.62
2022-07-30T11:14:57.683Z,69.62
2022-07-30T11:15:57.688Z,69.53
2022-07-30T11:16:57.685Z,70.83
2022-07-30T11:17:57.683Z,70.03
2022-07-30T11:19:27.473Z,70.93
2022-07-30T11:19:57.921Z,70.23
2022-07-30T11:20:57.689Z,69.16
2022-07-30T11:21:57.680Z,69.02
2022-07-30T11:22:57.680Z,68.32
2022-07-30T11:23:57.675Z,66.82
2022-07-30T11:24:57.676Z,68.42
2022-07-30T11:25:57.675Z,67.62
2022-07-30T11:26:57.681Z,67.62
2022-07-30T11:27:57.680Z,68.52
2022-07-30T11:28:57.683Z,66.12
2022-07-30T11:29:57.675Z,66.72
2022-07-30T11:30:57.679Z,66.82
2022-07-30T11:31:58.835Z,68.22
2022-07-30T11:32:57.674Z,67.82
2022-07-30T11:33:57.743Z,66.92
2022-07-30T11:34:57.672Z,67.12
2022-07-30T11:35:57.672Z,67.22
2022-07-30T11:36:57.669Z,66.72
2022-07-30T11:37:57.670Z,66.89
2022-07-30T11:39:05.210Z,66.39
2022-07-30T11:39:57.669Z,67.09
2022-07-30T11:40:57.668Z,64.48
2022-07-30T11:41:57.665Z,65.78
2022-07-30T11:42:57.671Z,65.36
2022-07-30T11:43:57.664Z,64.36
2022-07-30T11:45:02.243Z,63.35
2022-07-30T11:45:57.666Z,66.28
2022-07-30T11:46:57.665Z,65.78
2022-07-30T11:47:57.669Z,66.75
2022-07-30T11:48:57.750Z,67.25
2022-07-30T11:49:57.674Z,64.55
2022-07-30T11:51:00.816Z,65.55
2022-07-30T11:51:57.667Z,66.66
2022-07-30T11:52:57.671Z,65.39
2022-07-30T11:53:57.664Z,62.88
2022-07-30T11:54:57.665Z,64.78
2022-07-30T11:55:57.659Z,63.68
2022-07-30T11:57:02.144Z,65.19
2022-07-30T11:57:57.680Z,65.59
2022-07-30T11:58:57.671Z,64.48
2022-07-30T11:59:57.671Z,63.25
2022-07-30T12:00:57.662Z,64.65
2022-07-30T12:01:57.659Z,64.22
2022-07-30T12:02:59.875Z,63.32
2022-07-30T12:03:57.665Z,62.72
2022-07-30T12:04:57.658Z,63.62
2022-07-30T12:05:57.658Z,64.83
2022-07-30T12:06:57.659Z,64.12
2022-07-30T12:07:57.653Z,63.22
2022-07-30T12:08:58.863Z,63.02
2022-07-30T12:09:57.656Z,62.92
2022-07-30T12:10:57.657Z,62.42
2022-07-30T12:11:57.664Z,62.62
2022-07-30T12:12:57.654Z,63.72
2022-07-30T12:13:57.655Z,62.95
2022-07-30T12:15:01.762Z,66.66
2022-07-30T12:15:57.652Z,64.86
2022-07-30T12:16:57.653Z,65.05
2022-07-30T12:18:17.561Z,65.55
2022-07-30T12:18:57.649Z,66.05
2022-07-30T12:19:57.651Z,63.56
2022-07-30T12:20:59.431Z,64.95
2022-07-30T12:21:57.650Z,65.45
2022-07-30T12:22:57.658Z,63.15
2022-07-30T12:23:57.656Z,63.42
2022-07-30T12:24:57.656Z,66.52
2022-07-30T12:25:58.086Z,66.55
2022-07-30T12:26:57.651Z,63.95
2022-07-30T12:27:57.657Z,63.72
2022-07-30T12:28:57.648Z,63.12
2022-07-30T12:29:57.652Z,60.69
2022-07-30T12:30:57.650Z,60.99
2022-07-30T12:31:57.651Z,60.59
2022-07-30T12:32:57.646Z,60.57
2022-07-30T12:33:59.012Z,62.34
2022-07-30T12:34:57.850Z,62.83
2022-07-30T12:35:57.648Z,61.54
2022-07-30T12:36:57.643Z,62.23
2022-07-30T12:37:57.650Z,60.93
2022-07-30T12:38:57.644Z,59.44
2022-07-30T12:39:57.648Z,59.74
2022-07-30T12:40:57.643Z,59.83
2022-07-30T12:41:57.643Z,59.23
2022-07-30T12:42:57.644Z,59.64
2022-07-30T12:43:57.648Z,60.14
2022-07-30T12:44:57.644Z,59.53
2022-07-30T12:45:57.647Z,59.64
2022-07-30T12:46:57.642Z,60.83
2022-07-30T12:47:57.646Z,60.33
2022-07-30T12:48:57.765Z,59.04
2022-07-30T12:49:57.769Z,61.13
2022-07-30T12:50:57.652Z,62.63
2022-07-30T12:52:00.413Z,61.54
2022-07-30T12:52:57.643Z,63.73
2022-07-30T12:53:57.641Z,60.74
2022-07-30T12:54:57.646Z,62.13
2022-07-30T12:55:57.644Z,63.13
2022-07-30T12:56:57.647Z,62.83
2022-07-30T12:57:57.724Z,63.23